Startpagina
METAR-TAF:

METAR-TAF

Vliegvelden :

Albert, Frankrijk

breedte: 49-58-21N, lengte: 002-41-29E, hoogte: 111 m

Actueel weer

Dit bericht is 19 minuten geleden gemaakt, om 18:30 UTC
Wind 12 kt uit het westnoordwesten
Temperatuur 19°C
Vochtigheid 56%
Druk 1009 hPa
Zicht 10 km of meer
geen wolken onder 1500 m en geen cumulonimbus

METAR: LFAQ 271830Z AUTO 29012KT CAVOK 19/10 Q1009

Tijdstip: 20:49 (18:49 UTC)

Verwachting

Dit bericht is 4 uur en het 49 minuten geleden gemaakt, om 14:00 UTC
Verwachting geldig van 27 om 15 UTC tot 27 om 24 UTC
Wind 10 kt uit het westzuidwesten
Zicht 10 km of meer
Verspreide wolken op 4000 ft
Tijdelijke
van 27 om 15 UTC tot 27 om 20 UTC
Wind 10 kt uit het noordwesten

TAF: LFAQ 271400Z 2715/2724 25010KT 9999 SCT040 TEMPO 2715/2720 31010KT

Waarnemingen en weersverwachtingen van meer dan 4000 vliegvelden (METAR en TAF).

De beschikbare stations zijn de gele en rode punten op de kaart.

Ga met uw muis naar het station om de naam te zien.

Klik dan om waarnemingen en weersverwachtingen te zien.

kaart wijzigen: klik op de groene knoppen met een zwart kruis om in te zoomen, op de groene knop met een streepje om uit te zoomen of op de groene pijlen voor aangrenzende kaarten.


METAR-TAF: